Aérodrome :
LOGIN :

S'inscrire | Disclaimer

   EN    FR    IT 

 










Légende :    VFR   VFR Marginal   IFR   IFR Intensif   IFR Très Intensif
Visi : 
Plafond : 
>= 8 km
>= 3000ft
5 à 8 km
1000 à 3000 ft
1500m à 5 km
500 à 1000 ft
800 à 1500m
200 à 500 ft
< 800m
< 200 ft
Symboles :   Orages  Brouillard  Fortes neiges  Fortes précipitations  Vent > 20 kt
SIGMETs :   Divers  Orages  Givrage  Turbulence  Onde Orograph.  Cendres Volcan.






- Altitude de l'aérodrome : 963 ft
- Code IATA : TGM


LRTM - Transilvania Târgu Mureş Int.

DERNIER METAR :
  • 121700Z 27007KT 220V310 9999 BKN019 BKN042 16/12 Q1020

METARs EXPIRÉS :
  • 121630Z 27009KT 230V300 9999 BKN017 BKN042 16/12 Q1020 R07/CLRD//
  • 121600Z 27007KT 240V300 9999 BKN017 BKN040 16/13 Q1019 R07/29//95
  • 121530Z 28009KT 230V300 9999 BKN015 OVC035 16/13 Q1019 R07/29//95
  • 121500Z 27006KT 230V310 9999 BKN015 OVC035 15/13 Q1019 R07/29//95
  • 121430Z 27008KT 240V300 9999 BKN012 BKN032 FEW038CB 15/13 Q1019 R07/29//95

TAF TAF LRTM
Valide du 12 à 15h jusqu'au 13 à 00h UTC


121400Z 1215/1300 29008KT 9999 BKN025
PROB30
TEMPO 1215/1218 5000 -SHRA BKN010 SCT030CB BKN035



MET'MAP, la Météo Aéronautique d'un coup d'oeil ! - Copyright ORBIFLY Décembre 2007 - Disclaimer

ORBIFLY MET'MAP TEAM :

Programmation & Développement : Alexandra Zaïnal
Sur une idée originale de : Baudouin d'Aumeries
Assistance à la programmation : Marc-Olivier Méhu
Soutien technique & logistique : Manuel Goepfert

Contact : metmap@orbifly.com




SOURCES & CREDITS :

   NOAA